createdAt,value
2023-02-04T00:01:43.378Z,101516.19
2023-02-04T00:04:13.424Z,101509.09
2023-02-04T00:06:43.166Z,101543.66
2023-02-04T00:09:10.989Z,101536.56
2023-02-04T00:11:38.860Z,101494.91
2023-02-04T00:14:06.856Z,101518.84
2023-02-04T00:16:34.906Z,101515.31
2023-02-04T00:19:02.828Z,101461.22
2023-02-04T00:21:30.851Z,101525.91
2023-02-04T00:24:00.051Z,101548.09
2023-02-04T00:26:28.124Z,101537.44
2023-02-04T00:28:56.242Z,101555.19
2023-02-04T00:31:24.293Z,101557.84
2023-02-04T00:33:52.254Z,101564.94
2023-02-04T00:36:20.208Z,101461.19
2023-02-04T00:38:48.229Z,101551.66
2023-02-04T00:41:17.464Z,101553.41
2023-02-04T00:43:47.236Z,101423.94
2023-02-04T00:46:15.154Z,101564.94
2023-02-04T00:48:43.096Z,101567.63
2023-02-04T00:51:11.165Z,101578.25
2023-02-04T00:53:39.828Z,101575.59
2023-02-04T00:56:08.106Z,101576.53
2023-02-04T00:58:37.422Z,101603.13
2023-02-04T01:01:06.147Z,101586.22
2023-02-04T01:03:34.088Z,101596.91
2023-02-04T01:06:03.371Z,101577.38
2023-02-04T01:08:31.224Z,101597.81
2023-02-04T01:10:59.726Z,101615.56
2023-02-04T01:13:27.898Z,101616.41
2023-02-04T01:15:57.725Z,101631.50
2023-02-04T01:18:25.824Z,101635.94
2023-02-04T01:20:53.940Z,101663.41
2023-02-04T01:23:21.906Z,101661.63
2023-02-04T01:25:49.781Z,101676.66
2023-02-04T01:28:17.931Z,101669.53
2023-02-04T01:30:45.871Z,101659.75
2023-02-04T01:33:15.145Z,101691.72
2023-02-04T01:35:43.029Z,101656.13
2023-02-04T01:38:10.968Z,101582.44
2023-02-04T01:40:39.092Z,101696.13
2023-02-04T01:43:07.787Z,101703.22
2023-02-04T01:45:35.962Z,101680.13
2023-02-04T01:48:06.465Z,101707.66
2023-02-04T01:50:36.330Z,101709.44
2023-02-04T01:53:04.500Z,101708.50
2023-02-04T01:55:34.284Z,101709.41
2023-02-04T01:58:03.185Z,101683.63
2023-02-04T02:00:35.543Z,101728.91
2023-02-04T02:03:05.070Z,101731.56
2023-02-04T02:05:38.878Z,101736.88
2023-02-04T02:08:08.165Z,101736.03
2023-02-04T02:10:40.908Z,101705.81
2023-02-04T02:13:11.337Z,101742.19
2023-02-04T02:15:39.865Z,101754.63
2023-02-04T02:18:08.504Z,101746.56
2023-02-04T02:20:38.384Z,101758.13
2023-02-04T02:23:16.612Z,101768.78
2023-02-04T02:25:46.780Z,101773.22
2023-02-04T02:28:16.996Z,101768.75
2023-02-04T02:30:45.622Z,101776.72
2023-02-04T02:33:14.889Z,101783.72
2023-02-04T02:35:43.839Z,101789.09
2023-02-04T02:38:12.630Z,101786.38
2023-02-04T02:40:42.794Z,101792.59
2023-02-04T02:43:16.680Z,101764.19
2023-02-04T02:45:45.321Z,101806.81
2023-02-04T02:48:13.392Z,101784.56
2023-02-04T02:50:42.867Z,101809.44
2023-02-04T02:53:12.977Z,101819.19
2023-02-04T02:55:42.742Z,101768.50
2023-02-04T02:58:17.854Z,101741.72
2023-02-04T03:00:46.063Z,101828.78
2023-02-04T03:03:22.201Z,101814.59
2023-02-04T03:05:55.423Z,101835.88
2023-02-04T03:08:23.948Z,101802.03
2023-02-04T03:10:53.022Z,101857.22
2023-02-04T03:13:22.953Z,101826.03
2023-02-04T03:15:52.045Z,101866.91
2023-02-04T03:18:22.261Z,101864.22
2023-02-04T03:20:50.689Z,101873.91
2023-02-04T03:23:19.231Z,101808.97
2023-02-04T03:25:47.871Z,101816.19
2023-02-04T03:28:16.081Z,101869.63
2023-02-04T03:30:53.826Z,101878.41
2023-02-04T03:33:21.913Z,101886.38
2023-02-04T03:35:50.013Z,101888.09
2023-02-04T03:38:20.034Z,101886.31
2023-02-04T03:40:48.305Z,101855.09
2023-02-04T03:43:16.371Z,101900.44
2023-02-04T03:45:46.072Z,101893.38
2023-02-04T03:48:14.267Z,101906.72
2023-02-04T03:50:42.169Z,101891.44
2023-02-04T03:53:10.703Z,101923.50
2023-02-04T03:55:38.913Z,101926.19
2023-02-04T03:58:06.957Z,101923.47
2023-02-04T04:00:35.012Z,101881.47
2023-02-04T04:03:04.567Z,101918.03
2023-02-04T04:05:32.558Z,101914.47
2023-02-04T04:08:00.557Z,101847.59
2023-02-04T04:10:29.494Z,101937.50
2023-02-04T04:12:57.854Z,101948.19
2023-02-04T04:15:25.976Z,101964.09
2023-02-04T04:17:53.777Z,101968.66
2023-02-04T04:20:25.496Z,101974.75
2023-02-04T04:22:53.495Z,101849.91
2023-02-04T04:25:21.426Z,101968.47
2023-02-04T04:27:49.534Z,101974.75
2023-02-04T04:30:17.746Z,101987.97
2023-02-04T04:32:45.590Z,101996.81
2023-02-04T04:35:13.654Z,101998.56
2023-02-04T04:37:42.949Z,102006.50
2023-02-04T04:40:12.893Z,102005.59
2023-02-04T04:42:41.172Z,102006.44
2023-02-04T04:45:10.739Z,102017.06
2023-02-04T04:47:38.684Z,101999.16
2023-02-04T04:50:07.063Z,101942.91
2023-02-04T04:52:34.980Z,102026.69
2023-02-04T04:55:05.694Z,102014.28
2023-02-04T04:57:33.736Z,101912.69
2023-02-04T05:00:01.711Z,102024.09
2023-02-04T05:02:29.851Z,102022.38
2023-02-04T05:04:58.053Z,102040.06
2023-02-04T05:07:26.403Z,102040.06
2023-02-04T05:09:54.274Z,102045.34
2023-02-04T05:12:23.542Z,102015.06
2023-02-04T05:14:51.531Z,102011.41
2023-02-04T05:17:19.395Z,102050.56
2023-02-04T05:19:47.400Z,102058.47
2023-02-04T05:22:15.336Z,102063.00
2023-02-04T05:24:43.189Z,102070.06
2023-02-04T05:27:11.143Z,102075.44
2023-02-04T05:29:40.377Z,102064.75
2023-02-04T05:32:08.275Z,102071.72
2023-02-04T05:34:36.235Z,102061.84
2023-02-04T05:37:04.073Z,102066.28
2023-02-04T05:39:31.941Z,102055.31
2023-02-04T05:41:59.823Z,102080.34
2023-02-04T05:44:27.681Z,102076.94
2023-02-04T05:46:57.088Z,102081.72
2023-02-04T05:49:24.951Z,102082.41
2023-02-04T05:51:52.902Z,102094.25
2023-02-04T05:54:20.826Z,102104.97
2023-02-04T05:56:48.848Z,102113.69
2023-02-04T05:59:16.738Z,102123.91
2023-02-04T06:01:44.660Z,102115.81
2023-02-04T06:04:15.406Z,102130.19
2023-02-04T06:06:43.505Z,102133.13
2023-02-04T06:09:11.667Z,102130.03
2023-02-04T06:11:39.657Z,102091.53
2023-02-04T06:14:07.936Z,102130.03
2023-02-04T06:16:36.150Z,102117.22
2023-02-04T06:19:04.064Z,102087.81
2023-02-04T06:21:33.380Z,102135.03
2023-02-04T06:24:01.175Z,102122.38
2023-02-04T06:26:29.082Z,102155.31
2023-02-04T06:28:57.116Z,102111.53
2023-02-04T06:31:25.242Z,102160.78
2023-02-04T06:33:53.119Z,102143.91
2023-02-04T06:36:21.047Z,102101.31
2023-02-04T06:38:50.340Z,102164.56
2023-02-04T06:41:18.239Z,102167.16
2023-02-04T06:43:46.175Z,102171.19
2023-02-04T06:46:14.175Z,102172.28
2023-02-04T06:48:42.100Z,102158.66
2023-02-04T06:51:09.919Z,102173.59
2023-02-04T06:53:37.951Z,102085.16
2023-02-04T06:56:07.836Z,102194.19
2023-02-04T06:58:35.948Z,102193.22
2023-02-04T07:01:04.297Z,102171.03
2023-02-04T07:03:32.248Z,102207.47
2023-02-04T07:06:00.017Z,102210.72
2023-02-04T07:08:28.076Z,102209.03
2023-02-04T07:10:55.968Z,102206.25
2023-02-04T07:13:25.545Z,102215.91
2023-02-04T07:15:54.051Z,102204.63
2023-02-04T07:18:22.088Z,102211.44
2023-02-04T07:20:49.956Z,102204.69
2023-02-04T07:23:17.860Z,102224.69
2023-02-04T07:25:45.715Z,102204.81
2023-02-04T07:28:13.585Z,102234.44
2023-02-04T07:30:42.976Z,102208.56
2023-02-04T07:33:10.899Z,102242.13
2023-02-04T07:35:39.210Z,102188.06
2023-02-04T07:38:07.452Z,102246.16
2023-02-04T07:40:35.428Z,102247.09
2023-02-04T07:43:03.433Z,102251.53
2023-02-04T07:45:33.646Z,102259.84
2023-02-04T07:48:02.928Z,102233.69
2023-02-04T07:50:31.213Z,102260.34
2023-02-04T07:52:59.399Z,102087.50
2023-02-04T07:55:27.783Z,102279.84
2023-02-04T07:57:55.972Z,102290.66
2023-02-04T08:00:24.051Z,102262.97
2023-02-04T08:02:52.352Z,102281.66
2023-02-04T08:05:21.704Z,102278.91
2023-02-04T08:07:49.853Z,102291.50
2023-02-04T08:10:17.996Z,102274.75
2023-02-04T08:12:45.820Z,102281.94
2023-02-04T08:15:13.700Z,102286.47
2023-02-04T08:17:41.606Z,102291.09
2023-02-04T08:20:10.667Z,102240.38
2023-02-04T08:22:40.071Z,102281.88
2023-02-04T08:25:08.362Z,102301.25
2023-02-04T08:27:36.376Z,102301.38
2023-02-04T08:30:04.535Z,102264.41
2023-02-04T08:32:32.592Z,102303.09
2023-02-04T08:35:00.984Z,102302.94
2023-02-04T08:37:29.162Z,102302.66
2023-02-04T08:39:58.602Z,102277.16
2023-02-04T08:42:26.645Z,102279.28
2023-02-04T08:44:54.722Z,102307.75
2023-02-04T08:47:22.958Z,102317.03
2023-02-04T08:49:51.131Z,102300.72
2023-02-04T08:52:19.468Z,102324.13
2023-02-04T08:54:47.663Z,102308.25
2023-02-04T08:57:16.902Z,102327.31
2023-02-04T08:59:45.988Z,102329.03
2023-02-04T09:02:13.963Z,102331.94
2023-02-04T09:04:41.973Z,102316.78
2023-02-04T09:07:10.110Z,102339.25
2023-02-04T09:09:38.224Z,102330.13
2023-02-04T09:12:06.221Z,102203.25
2023-02-04T09:14:35.486Z,102360.75
2023-02-04T09:17:04.179Z,102241.69
2023-02-04T09:19:31.945Z,102340.59
2023-02-04T09:21:59.872Z,102371.69
2023-02-04T09:24:27.854Z,102352.66
2023-02-04T09:26:55.725Z,102361.78
2023-02-04T09:29:23.623Z,102359.59
2023-02-04T09:31:52.967Z,102351.59
2023-02-04T09:34:20.757Z,102388.53
2023-02-04T09:36:48.981Z,102388.66
2023-02-04T09:39:17.542Z,102384.75
2023-02-04T09:41:45.619Z,102371.16
2023-02-04T09:44:16.613Z,102384.06
2023-02-04T09:46:49.363Z,102380.88
2023-02-04T09:49:18.852Z,102348.97
2023-02-04T09:51:48.590Z,102392.38
2023-02-04T09:54:18.569Z,102393.41
2023-02-04T09:56:47.428Z,102403.91
2023-02-04T09:59:17.273Z,102390.13
2023-02-04T10:01:45.747Z,102416.69
2023-02-04T10:04:16.065Z,102207.22
2023-02-04T10:06:45.688Z,102413.78
2023-02-04T10:09:15.929Z,102418.19
2023-02-04T10:11:44.598Z,102429.28
2023-02-04T10:14:16.237Z,102429.25
2023-02-04T10:16:49.162Z,102356.44
2023-02-04T10:19:17.377Z,102432.41
2023-02-04T10:21:47.299Z,102433.66
2023-02-04T10:24:17.273Z,102419.31
2023-02-04T10:26:45.625Z,102441.38
2023-02-04T10:29:18.689Z,102433.72
2023-02-04T10:31:48.299Z,102435.69
2023-02-04T10:34:19.120Z,102436.16
2023-02-04T10:36:50.136Z,102425.50
2023-02-04T10:39:20.046Z,102382.56
2023-02-04T10:41:52.224Z,102441.66
2023-02-04T10:44:26.723Z,102441.88
2023-02-04T10:47:00.629Z,102378.59
2023-02-04T10:49:28.718Z,102405.97
2023-02-04T10:51:58.047Z,102435.00
2023-02-04T10:54:31.648Z,102425.97
2023-02-04T10:57:09.531Z,102434.13
2023-02-04T10:59:37.927Z,102439.19
2023-02-04T11:02:32.660Z,102429.38
2023-02-04T11:05:01.565Z,102440.22
2023-02-04T11:07:31.391Z,102437.75
2023-02-04T11:09:59.620Z,102441.69
2023-02-04T11:12:40.133Z,102431.84
2023-02-04T11:15:29.232Z,102434.03
2023-02-04T11:18:04.391Z,102417.13
2023-02-04T11:20:34.629Z,102440.56
2023-02-04T11:23:16.118Z,102433.50
2023-02-04T11:25:44.026Z,102443.25
2023-02-04T11:28:16.375Z,102395.22
2023-02-04T11:30:44.551Z,102421.25
2023-02-04T11:33:25.279Z,102445.53
2023-02-04T11:36:04.501Z,102395.50
2023-02-04T11:38:34.897Z,102455.75
2023-02-04T11:41:03.616Z,102436.13
2023-02-04T11:43:35.429Z,102437.06
2023-02-04T11:46:13.831Z,102445.84
2023-02-04T11:48:42.512Z,102437.31
2023-02-04T11:51:13.740Z,102440.34
2023-02-04T11:53:43.581Z,102412.03
2023-02-04T11:56:18.518Z,102448.63
2023-02-04T11:58:48.547Z,102446.00
2023-02-04T12:01:21.032Z,102431.78
2023-02-04T12:03:50.828Z,102420.91
2023-02-04T12:06:23.494Z,102415.50
2023-02-04T12:09:05.006Z,102451.38
2023-02-04T12:11:33.021Z,102446.97
2023-02-04T12:14:10.126Z,102446.97
2023-02-04T12:16:46.563Z,102301.00
2023-02-04T12:19:14.932Z,102404.25
2023-02-04T12:21:43.211Z,102454.81
2023-02-04T12:24:12.759Z,102440.53
2023-02-04T12:26:40.556Z,102383.16
2023-02-04T12:29:09.487Z,102440.09
2023-02-04T12:31:37.408Z,102453.41
2023-02-04T12:34:05.447Z,102459.34
2023-02-04T12:36:33.651Z,102358.88
2023-02-04T12:39:03.062Z,102450.75
2023-02-04T12:41:32.376Z,102434.63
2023-02-04T12:44:01.395Z,102450.16
2023-02-04T12:46:29.670Z,102459.03
2023-02-04T12:48:58.172Z,102466.16
2023-02-04T12:51:26.055Z,102469.41
2023-02-04T12:53:54.088Z,102432.09
2023-02-04T12:56:24.136Z,102466.19
2023-02-04T12:58:53.354Z,102461.38
2023-02-04T13:01:21.151Z,102465.06
2023-02-04T13:03:48.998Z,102468.75
2023-02-04T13:06:16.893Z,102462.16
2023-02-04T13:08:44.806Z,102456.41
2023-02-04T13:11:12.632Z,102330.06
2023-02-04T13:13:40.596Z,102468.72
2023-02-04T13:16:10.010Z,102470.34
2023-02-04T13:18:38.097Z,102447.00
2023-02-04T13:21:06.524Z,102444.47
2023-02-04T13:23:34.357Z,102465.09
2023-02-04T13:26:02.302Z,102467.84
2023-02-04T13:28:30.151Z,102382.88
2023-02-04T13:30:58.111Z,102387.84
2023-02-04T13:33:27.593Z,102465.69
2023-02-04T13:35:55.412Z,102456.31
2023-02-04T13:38:23.586Z,102463.59
2023-02-04T13:40:51.488Z,102436.25
2023-02-04T13:43:19.422Z,102407.84
2023-02-04T13:45:48.854Z,102463.91
2023-02-04T13:48:17.092Z,102455.88
2023-02-04T13:50:46.437Z,102469.88
2023-02-04T13:53:14.373Z,102454.41
2023-02-04T13:55:42.174Z,102411.50
2023-02-04T13:58:10.096Z,102482.31
2023-02-04T14:00:38.240Z,102474.22
2023-02-04T14:03:06.190Z,102473.44
2023-02-04T14:05:34.050Z,102459.34
2023-02-04T14:08:03.387Z,102438.03
2023-02-04T14:10:31.581Z,102455.09
2023-02-04T14:12:59.909Z,102456.44
2023-02-04T14:15:27.709Z,102477.00
2023-02-04T14:17:55.730Z,102470.06
2023-02-04T14:20:23.658Z,102463.81
2023-02-04T14:22:51.523Z,102458.75
2023-02-04T14:25:20.771Z,102458.41
2023-02-04T14:27:48.626Z,102456.25
2023-02-04T14:30:18.511Z,102465.53
2023-02-04T14:32:46.510Z,102465.59
2023-02-04T14:35:14.933Z,102453.78
2023-02-04T14:37:42.994Z,102436.97
2023-02-04T14:40:13.221Z,102456.38
2023-02-04T14:42:42.632Z,102460.06
2023-02-04T14:45:12.144Z,102466.50
2023-02-04T14:47:41.096Z,102469.97
2023-02-04T14:50:12.166Z,102468.25
2023-02-04T14:52:40.096Z,102435.00
2023-02-04T14:55:09.855Z,102469.13
2023-02-04T14:57:37.649Z,102470.66
2023-02-04T15:00:08.374Z,102425.19
2023-02-04T15:02:36.334Z,102470.78
2023-02-04T15:05:04.319Z,102442.78
2023-02-04T15:07:32.342Z,102467.72
2023-02-04T15:10:00.202Z,102477.16
2023-02-04T15:12:28.095Z,102486.78
2023-02-04T15:14:56.265Z,102477.50
2023-02-04T15:17:25.649Z,102488.13
2023-02-04T15:19:53.851Z,102475.06
2023-02-04T15:22:21.751Z,102470.59
2023-02-04T15:24:49.675Z,102404.91
2023-02-04T15:27:17.522Z,102479.84
2023-02-04T15:29:45.477Z,102479.09
2023-02-04T15:32:13.427Z,102465.72
2023-02-04T15:34:42.653Z,102477.50
2023-02-04T15:37:11.029Z,102475.78
2023-02-04T15:39:40.179Z,102475.25
2023-02-04T15:42:08.213Z,102384.72
2023-02-04T15:44:36.029Z,102406.09
2023-02-04T15:47:05.619Z,102378.31
2023-02-04T15:49:35.122Z,102459.06
2023-02-04T15:52:07.138Z,102489.50
2023-02-04T15:54:40.151Z,102453.28
2023-02-04T15:57:08.052Z,102028.91
2023-02-04T15:59:35.957Z,102503.16
2023-02-04T16:02:03.858Z,102501.69
2023-02-04T16:04:31.716Z,102500.66
2023-02-04T16:06:59.736Z,102499.72
2023-02-04T16:09:29.019Z,102452.22
2023-02-04T16:11:57.193Z,102500.91
2023-02-04T16:14:25.059Z,102506.22
2023-02-04T16:16:52.930Z,102417.41
2023-02-04T16:19:20.805Z,102516.50
2023-02-04T16:21:48.671Z,102463.66
2023-02-04T16:24:18.517Z,102518.03
2023-02-04T16:26:47.896Z,102517.97
2023-02-04T16:29:16.717Z,102476.94
2023-02-04T16:31:44.672Z,102508.22
2023-02-04T16:34:12.667Z,102517.19
2023-02-04T16:36:40.510Z,102515.69
2023-02-04T16:39:08.427Z,102514.13
2023-02-04T16:41:36.296Z,102511.41
2023-02-04T16:44:05.634Z,102514.91
2023-02-04T16:46:33.857Z,102520.16
2023-02-04T16:49:02.007Z,102524.59
2023-02-04T16:51:30.321Z,102483.28
2023-02-04T16:53:58.207Z,102493.03
2023-02-04T16:56:30.020Z,102434.72
2023-02-04T16:58:57.985Z,102523.22
2023-02-04T17:01:27.446Z,102517.84
2023-02-04T17:03:58.290Z,102502.53
2023-02-04T17:06:26.770Z,102461.16
2023-02-04T17:08:54.561Z,102529.06
2023-02-04T17:11:31.851Z,102527.97
2023-02-04T17:14:01.475Z,102533.72
2023-02-04T17:16:31.519Z,102526.72
2023-02-04T17:18:59.928Z,102538.03
2023-02-04T17:21:29.791Z,102477.84
2023-02-04T17:24:00.445Z,102542.13
2023-02-04T17:26:28.455Z,102541.13
2023-02-04T17:28:56.496Z,102542.94
2023-02-04T17:31:24.400Z,102526.53
2023-02-04T17:33:53.684Z,102553.72
2023-02-04T17:36:21.703Z,102558.97
2023-02-04T17:38:50.116Z,102553.50
2023-02-04T17:41:17.952Z,102539.88
2023-02-04T17:43:45.754Z,102558.56
2023-02-04T17:46:13.609Z,102561.47
2023-02-04T17:48:41.548Z,102445.97
2023-02-04T17:51:11.150Z,102497.28
2023-02-04T17:53:40.419Z,102538.38
2023-02-04T17:56:12.224Z,102534.25
2023-02-04T17:58:40.822Z,102522.09
2023-02-04T18:01:12.288Z,102547.75
2023-02-04T18:03:42.767Z,102543.72
2023-02-04T18:06:20.367Z,102551.88
2023-02-04T18:08:48.852Z,102503.03
2023-02-04T18:11:20.601Z,102529.94
2023-02-04T18:13:49.469Z,102488.22
2023-02-04T18:16:25.342Z,102561.19
2023-02-04T18:18:55.417Z,102555.97
2023-02-04T18:21:27.267Z,102562.41
2023-02-04T18:24:03.557Z,102547.94
2023-02-04T18:26:34.234Z,102555.00
2023-02-04T18:29:16.696Z,102554.09
2023-02-04T18:31:50.728Z,102556.59
2023-02-04T18:34:28.939Z,102563.53
2023-02-04T18:36:58.220Z,102567.81
2023-02-04T18:39:29.630Z,102562.41
2023-02-04T18:41:57.507Z,102536.56
2023-02-04T18:44:32.574Z,102555.22
2023-02-04T18:47:03.272Z,102560.38
2023-02-04T18:49:34.303Z,102420.28
2023-02-04T18:52:16.520Z,102533.22
2023-02-04T18:54:48.038Z,102563.88
2023-02-04T18:57:36.811Z,102470.59
2023-02-04T19:00:27.650Z,102572.94
2023-02-04T19:02:58.730Z,102573.91
2023-02-04T19:05:30.594Z,102560.50
2023-02-04T19:08:17.983Z,102556.91
2023-02-04T19:10:45.907Z,102376.19
2023-02-04T19:13:19.930Z,102538.69
2023-02-04T19:15:57.689Z,102572.06
2023-02-04T19:18:28.363Z,102563.25
2023-02-04T19:20:56.629Z,102572.72
2023-02-04T19:23:25.975Z,102551.19
2023-02-04T19:25:53.900Z,102536.03
2023-02-04T19:28:30.065Z,102593.25
2023-02-04T19:31:01.646Z,102532.38
2023-02-04T19:33:33.912Z,102598.91
2023-02-04T19:36:19.332Z,102599.88
2023-02-04T19:38:52.067Z,102600.00
2023-02-04T19:41:34.653Z,102600.81
2023-02-04T19:44:38.082Z,102591.03
2023-02-04T19:47:23.503Z,102584.66
2023-02-04T19:49:51.654Z,102586.50
2023-02-04T19:52:30.986Z,102583.03
2023-02-04T19:55:24.566Z,102585.66
2023-02-04T19:57:54.149Z,102586.72
2023-02-04T20:00:46.618Z,102601.78
2023-02-04T20:03:35.852Z,102600.91
2023-02-04T20:06:27.505Z,102574.72
2023-02-04T20:08:57.309Z,102579.88
2023-02-04T20:11:50.472Z,102585.59
2023-02-04T20:14:27.740Z,102590.97
2023-02-04T20:16:58.507Z,102481.41
2023-02-04T20:19:29.779Z,102535.81
2023-02-04T20:22:13.466Z,102596.03
2023-02-04T20:24:43.174Z,102602.06
2023-02-04T20:27:20.093Z,102589.56
2023-02-04T20:29:48.130Z,102337.78
2023-02-04T20:32:21.343Z,102560.16
2023-02-04T20:34:49.289Z,102590.81
2023-02-04T20:37:24.007Z,102542.50
2023-02-04T20:39:51.920Z,102565.50
2023-02-04T20:42:33.655Z,102587.72
2023-02-04T20:45:27.673Z,102579.84
2023-02-04T20:47:59.945Z,102574.72
2023-02-04T20:50:38.010Z,102588.88
2023-02-04T20:53:17.911Z,102563.31
2023-02-04T20:55:50.000Z,102564.19
2023-02-04T20:58:22.223Z,102594.94
2023-02-04T21:00:53.920Z,102587.81
2023-02-04T21:03:27.904Z,102590.34
2023-02-04T21:05:58.228Z,102588.31
2023-02-04T21:08:34.469Z,102562.13
2023-02-04T21:11:03.587Z,102570.22
2023-02-04T21:13:33.257Z,102553.88
2023-02-04T21:16:01.373Z,102518.63
2023-02-04T21:18:30.623Z,102529.47
2023-02-04T21:20:58.581Z,102556.16
2023-02-04T21:23:26.691Z,102539.00
2023-02-04T21:25:54.639Z,102548.50
2023-02-04T21:28:22.575Z,102542.28
2023-02-04T21:30:52.031Z,102528.63
2023-02-04T21:33:19.954Z,102556.16
2023-02-04T21:35:47.789Z,102555.81
2023-02-04T21:38:15.848Z,102548.38
2023-02-04T21:40:43.726Z,102554.78
2023-02-04T21:43:11.814Z,102531.94
2023-02-04T21:45:40.600Z,102562.72
2023-02-04T21:48:09.912Z,102563.34
2023-02-04T21:50:39.714Z,102562.16
2023-02-04T21:53:08.735Z,102567.91
2023-02-04T21:55:37.546Z,102549.63
2023-02-04T21:58:05.815Z,102564.59
2023-02-04T22:00:34.114Z,102445.03
2023-02-04T22:03:02.616Z,102549.34
2023-02-04T22:05:32.512Z,102563.50
2023-02-04T22:08:00.636Z,102565.13
2023-02-04T22:10:28.452Z,102570.09
2023-02-04T22:12:56.477Z,102564.63
2023-02-04T22:15:24.866Z,102554.06
2023-02-04T22:17:53.915Z,102547.34
2023-02-04T22:20:23.346Z,102531.75
2023-02-04T22:22:53.307Z,102551.31
2023-02-04T22:25:22.287Z,102536.25
2023-02-04T22:27:50.430Z,102476.59
2023-02-04T22:30:19.380Z,102560.38
2023-02-04T22:32:47.470Z,102558.72
2023-02-04T22:35:16.312Z,102534.78
2023-02-04T22:37:44.182Z,102540.13
2023-02-04T22:40:14.152Z,102557.75
2023-02-04T22:42:42.163Z,102563.75
2023-02-04T22:45:11.356Z,102560.38
2023-02-04T22:47:39.681Z,102535.41
2023-02-04T22:50:08.583Z,102530.13
2023-02-04T22:52:36.716Z,102440.06
2023-02-04T22:55:05.080Z,102531.00
2023-02-04T22:57:34.465Z,102523.56
2023-02-04T23:00:02.455Z,102538.81
2023-02-04T23:02:30.509Z,102532.56
2023-02-04T23:04:58.409Z,102535.66
2023-02-04T23:07:26.496Z,102447.16
2023-02-04T23:09:54.391Z,102524.53
2023-02-04T23:12:22.203Z,102533.75
2023-02-04T23:14:51.580Z,102524.75
2023-02-04T23:17:19.749Z,102503.06
2023-02-04T23:19:47.649Z,102502.22
2023-02-04T23:22:15.874Z,102523.44
2023-02-04T23:24:44.374Z,102479.22
2023-02-04T23:27:12.779Z,102480.97
2023-02-04T23:29:41.708Z,102492.53
2023-02-04T23:32:10.973Z,102458.88
2023-02-04T23:34:39.101Z,102516.31
2023-02-04T23:37:07.385Z,102540.41
2023-02-04T23:39:35.307Z,102514.44
2023-02-04T23:42:03.304Z,102532.31
2023-02-04T23:44:31.241Z,102534.34
2023-02-04T23:46:59.189Z,102531.78
2023-02-04T23:49:28.487Z,102542.38
2023-02-04T23:51:56.493Z,102491.97
2023-02-04T23:54:24.717Z,102532.19
2023-02-04T23:56:53.521Z,102512.41
2023-02-04T23:59:21.425Z,102452.84
